Time;durP1;ratioP1;P1;durP2;ratioP2;P2;SDS_P1;SDS_P2;PMS_P1;PMS_P2;Temp;Humidity;BMP_temperature;BMP_pressure;BME280_temperature;BME280_humidity;BME280_pressure;Samples;Min_cycle;Max_cycle;Signal;HPM_P1;HPM_P2
2023/08/24 00:00:38;;;;;;;3.20;2.40;;;18.90;99.90;;;;;;5029978;28;20248;-49
2023/08/24 00:03:05;;;;;;;3.77;2.30;;;19.00;99.90;;;;;;5035216;28;20223;-50
2023/08/24 00:05:36;;;;;;;4.03;2.90;;;18.90;99.90;;;;;;5006900;28;20204;-45
2023/08/24 00:08:04;;;;;;;2.77;2.37;;;19.00;99.90;;;;;;5027432;28;20238;-49
2023/08/24 00:10:31;;;;;;;4.73;2.33;;;18.90;99.90;;;;;;5031489;28;20192;-55
2023/08/24 00:12:59;;;;;;;5.33;2.60;;;18.90;99.90;;;;;;5023328;28;20223;-55
2023/08/24 00:15:26;;;;;;;3.00;2.60;;;18.90;99.90;;;;;;5017933;28;20195;-56
2023/08/24 00:17:53;;;;;;;4.83;2.37;;;18.90;99.90;;;;;;5032961;28;20611;-52
2023/08/24 00:20:20;;;;;;;1.80;1.57;;;18.90;99.90;;;;;;5013774;28;20254;-54
2023/08/24 00:22:47;;;;;;;3.00;1.83;;;18.80;99.90;;;;;;5033666;28;20218;-49
2023/08/24 00:25:14;;;;;;;3.03;2.23;;;18.80;99.90;;;;;;5020135;28;20207;-58
2023/08/24 00:27:41;;;;;;;2.73;1.77;;;18.80;99.90;;;;;;5029026;28;20204;-51
2023/08/24 00:30:10;;;;;;;1.80;1.70;;;18.70;99.90;;;;;;5018370;28;20204;-49
2023/08/24 00:32:37;;;;;;;3.23;2.20;;;18.70;99.90;;;;;;5022040;28;20900;-48
2023/08/24 00:35:06;;;;;;;2.13;1.70;;;18.60;99.90;;;;;;5010560;28;20265;-50
2023/08/24 00:37:33;;;;;;;3.10;1.90;;;18.70;99.90;;;;;;5026996;28;20279;-49
2023/08/24 00:40:03;;;;;;;5.63;2.20;;;18.50;99.90;;;;;;5018358;28;20670;-50
2023/08/24 00:42:30;;;;;;;6.47;3.20;;;18.50;99.90;;;;;;5025310;28;20211;-56
2023/08/24 00:44:57;;;;;;;5.33;3.50;;;18.50;99.90;;;;;;5016591;28;20210;-51
2023/08/24 00:47:25;;;;;;;6.63;2.77;;;18.50;99.90;;;;;;5023689;28;20713;-56
2023/08/24 00:49:52;;;;;;;3.23;2.30;;;18.50;99.90;;;;;;5009704;28;20207;-46
2023/08/24 00:52:19;;;;;;;2.43;1.97;;;18.50;99.90;;;;;;5024236;28;20202;-56
2023/08/24 00:54:47;;;;;;;6.37;2.10;;;18.50;99.90;;;;;;5016963;28;20837;-50
2023/08/24 00:57:14;;;;;;;2.83;2.13;;;18.50;99.90;;;;;;5017493;28;20215;-57
2023/08/24 00:59:41;;;;;;;5.23;2.70;;;18.50;99.90;;;;;;5013943;28;20216;-55
2023/08/24 01:02:08;;;;;;;4.00;1.97;;;18.40;99.90;;;;;;5026911;28;20208;-48
2023/08/24 01:04:37;;;;;;;4.47;2.47;;;18.30;99.90;;;;;;5037806;28;20851;-47
2023/08/24 01:07:04;;;;;;;5.57;1.90;;;18.40;99.90;;;;;;5018109;28;20208;-47
2023/08/24 01:09:31;;;;;;;2.50;2.23;;;18.30;99.90;;;;;;5021722;28;20254;-50
2023/08/24 01:12:03;;;;;;;2.43;2.20;;;18.20;99.90;;;;;;5027047;28;20199;-49
2023/08/24 01:14:48;;;;;;;5.63;2.70;;;18.00;99.90;;;;;;5022487;28;20211;-55
2023/08/24 01:17:19;;;;;;;3.03;2.20;;;18.10;99.90;;;;;;5018296;28;20234;-57
2023/08/24 01:19:49;;;;;;;4.30;2.63;;;18.20;99.90;;;;;;5036486;28;20175;-54
2023/08/24 01:22:29;;;;;;;5.00;3.03;;;18.00;99.90;;;;;;5015431;28;20456;-46
2023/08/24 01:25:07;;;;;;;4.30;2.30;;;18.10;99.90;;;;;;5020987;28;20200;-56
2023/08/24 01:27:37;;;;;;;4.23;2.90;;;18.00;99.90;;;;;;5029104;28;20235;-56
2023/08/24 01:30:05;;;;;;;4.67;3.10;;;18.00;99.90;;;;;;5032844;28;20191;-51
2023/08/24 01:32:32;;;;;;;5.90;3.37;;;17.90;99.90;;;;;;5017448;28;20199;-55
2023/08/24 01:34:59;;;;;;;3.93;3.10;;;17.80;99.90;;;;;;5030682;28;20284;-55
2023/08/24 01:37:27;;;;;;;4.33;2.60;;;17.80;99.90;;;;;;4996529;28;20752;-50
2023/08/24 01:40:05;;;;;;;3.77;2.27;;;17.80;99.90;;;;;;5032838;28;20241;-56
2023/08/24 01:42:36;;;;;;;3.73;2.90;;;17.80;99.90;;;;;;5019256;28;20203;-54
2023/08/24 01:45:08;;;;;;;6.27;2.67;;;17.80;99.90;;;;;;5030667;28;20200;-56
2023/08/24 01:47:36;;;;;;;4.83;3.20;;;17.80;99.90;;;;;;5017837;28;20247;-53
2023/08/24 01:50:04;;;;;;;5.20;2.87;;;17.80;99.90;;;;;;5030686;28;20207;-56
2023/08/24 01:52:33;;;;;;;7.33;3.60;;;17.70;99.90;;;;;;5014745;28;20203;-55
2023/08/24 01:55:00;;;;;;;4.73;3.03;;;17.60;99.90;;;;;;5035870;28;20214;-56
2023/08/24 01:57:27;;;;;;;4.00;3.00;;;17.60;99.90;;;;;;5012473;28;20215;-51
2023/08/24 01:59:55;;;;;;;5.10;2.93;;;17.60;99.90;;;;;;5033789;28;20199;-55
2023/08/24 02:02:22;;;;;;;3.80;3.30;;;17.60;99.90;;;;;;5034697;28;20195;-50
2023/08/24 02:04:49;;;;;;;5.40;3.40;;;17.50;99.90;;;;;;5015073;28;20223;-55
2023/08/24 02:07:16;;;;;;;2.90;2.57;;;17.40;99.90;;;;;;5006019;28;20598;-51
2023/08/24 02:09:43;;;;;;;4.43;2.67;;;17.40;99.90;;;;;;5021204;28;20246;-56
2023/08/24 02:12:10;;;;;;;4.30;3.27;;;17.50;99.90;;;;;;5015760;28;20220;-54
2023/08/24 02:14:37;;;;;;;3.43;2.67;;;17.40;99.90;;;;;;5016175;28;20243;-51
2023/08/24 02:17:05;;;;;;;4.47;3.00;;;17.40;99.90;;;;;;5017374;28;20203;-56
2023/08/24 02:19:32;;;;;;;2.97;2.67;;;17.40;99.90;;;;;;5007589;28;20193;-56
2023/08/24 02:21:59;;;;;;;5.70;3.10;;;17.30;99.90;;;;;;5023355;28;20674;-57
2023/08/24 02:24:26;;;;;;;4.37;3.10;;;17.30;99.90;;;;;;5005364;28;20216;-49
2023/08/24 02:26:53;;;;;;;6.13;3.60;;;17.20;99.90;;;;;;5024004;28;20196;-52
2023/08/24 02:29:20;;;;;;;3.73;3.13;;;17.10;99.90;;;;;;5015518;28;20709;-47
2023/08/24 02:31:50;;;;;;;4.00;3.10;;;17.10;99.90;;;;;;5024320;28;20984;-52
2023/08/24 02:34:19;;;;;;;4.40;3.30;;;17.10;99.90;;;;;;5013476;28;20227;-48
2023/08/24 02:36:46;;;;;;;4.77;3.23;;;17.10;99.90;;;;;;5018512;28;20282;-54
2023/08/24 02:39:13;;;;;;;4.47;3.00;;;17.00;99.90;;;;;;5011832;28;20213;-54
2023/08/24 02:41:40;;;;;;;5.50;3.13;;;17.00;99.90;;;;;;5024873;28;20914;-56
2023/08/24 02:44:07;;;;;;;4.47;3.00;;;16.90;99.90;;;;;;5029887;28;20273;-56
2023/08/24 02:46:33;;;;;;;5.10;3.30;;;16.80;99.90;;;;;;5011949;28;20298;-53
2023/08/24 02:49:02;;;;;;;5.77;4.60;;;16.90;99.90;;;;;;5020908;28;20208;-53
2023/08/24 02:51:31;;;;;;;9.20;4.27;;;16.90;99.90;;;;;;5012306;28;20203;-48
2023/08/24 02:53:58;;;;;;;5.10;4.60;;;16.90;99.90;;;;;;5005290;28;20219;-54
2023/08/24 02:56:24;;;;;;;5.93;4.17;;;16.90;99.90;;;;;;5027632;28;20200;-51
2023/08/24 02:58:52;;;;;;;4.63;4.23;;;16.90;99.90;;;;;;5030251;28;20249;-55
2023/08/24 03:01:19;;;;;;;3.60;3.30;;;16.90;99.90;;;;;;5007047;28;20212;-55
2023/08/24 03:03:46;;;;;;;3.40;3.00;;;16.90;99.90;;;;;;5026080;28;20222;-47
2023/08/24 03:06:12;;;;;;;4.50;3.50;;;16.90;99.90;;;;;;5011528;28;20200;-57
2023/08/24 03:08:41;;;;;;;7.30;3.63;;;16.80;99.90;;;;;;4998387;28;20710;-55
2023/08/24 03:11:08;;;;;;;3.87;3.57;;;16.80;99.90;;;;;;5023009;28;20180;-57
2023/08/24 03:13:38;;;;;;;7.37;4.03;;;16.70;99.90;;;;;;5036730;28;20211;-49
2023/08/24 03:16:05;;;;;;;5.23;4.33;;;16.60;99.90;;;;;;5022030;28;20346;-51
2023/08/24 03:18:33;;;;;;;4.77;4.20;;;16.60;99.90;;;;;;5027066;28;20535;-57
2023/08/24 03:20:59;;;;;;;5.93;4.70;;;16.60;99.90;;;;;;5013618;28;20196;-48
2023/08/24 03:23:26;;;;;;;8.63;4.87;;;16.50;99.90;;;;;;5032271;28;20220;-53
2023/08/24 03:25:56;;;;;;;7.43;4.50;;;16.50;99.90;;;;;;5015821;28;20208;-50
2023/08/24 03:28:22;;;;;;;5.67;4.23;;;16.50;99.90;;;;;;5024382;28;20239;-53
2023/08/24 03:30:51;;;;;;;5.50;4.23;;;16.40;99.90;;;;;;5027982;28;20661;-51
2023/08/24 03:33:19;;;;;;;6.43;4.90;;;16.50;99.90;;;;;;5020467;28;20220;-56
2023/08/24 03:35:46;;;;;;;6.97;5.13;;;16.50;99.90;;;;;;5024470;28;20572;-50
2023/08/24 03:38:13;;;;;;;4.80;4.40;;;16.50;99.90;;;;;;5010137;28;20202;-50
2023/08/24 03:40:39;;;;;;;8.67;4.70;;;16.50;99.90;;;;;;5018256;28;20240;-56
2023/08/24 03:43:08;;;;;;;5.10;4.60;;;16.40;99.90;;;;;;5024003;28;20233;-56
2023/08/24 03:45:35;;;;;;;4.80;4.33;;;16.30;99.90;;;;;;5033445;28;20720;-52
2023/08/24 03:48:02;;;;;;;6.13;4.27;;;16.30;99.90;;;;;;5008784;28;22607;-56
2023/08/24 03:50:29;;;;;;;6.03;5.10;;;16.20;99.90;;;;;;5027836;28;20200;-55
2023/08/24 03:52:56;;;;;;;7.10;4.70;;;16.20;99.90;;;;;;5010676;28;20249;-49
2023/08/24 03:55:23;;;;;;;8.00;4.10;;;16.20;99.90;;;;;;5016605;28;20547;-52
2023/08/24 03:57:50;;;;;;;3.80;3.50;;;16.20;99.90;;;;;;5025202;28;20203;-47
2023/08/24 04:00:18;;;;;;;4.67;3.67;;;16.20;99.90;;;;;;5027085;28;20200;-53
2023/08/24 04:02:46;;;;;;;4.47;3.30;;;16.20;99.90;;;;;;5025040;28;20228;-49
2023/08/24 04:05:21;;;;;;;4.43;3.20;;;16.20;99.90;;;;;;5016640;28;20208;-51
2023/08/24 04:07:48;;;;;;;3.73;3.33;;;16.20;99.90;;;;;;5009512;28;20216;-54
2023/08/24 04:10:15;;;;;;;3.33;3.00;;;16.20;99.90;;;;;;5011427;28;20238;-49
2023/08/24 04:12:43;;;;;;;10.00;2.90;;;16.20;99.90;;;;;;5028018;28;20183;-57
2023/08/24 04:15:10;;;;;;;3.73;3.33;;;16.20;99.90;;;;;;5029563;28;20218;-51
2023/08/24 04:17:39;;;;;;;3.80;2.83;;;16.10;99.90;;;;;;5021183;28;20204;-54
2023/08/24 04:20:07;;;;;;;3.67;2.53;;;16.00;99.90;;;;;;5021433;28;20211;-53
2023/08/24 04:22:34;;;;;;;3.30;2.80;;;15.90;99.90;;;;;;5016669;28;20756;-56
2023/08/24 04:25:01;;;;;;;5.03;3.03;;;15.80;99.90;;;;;;5012791;28;20254;-55
2023/08/24 04:27:28;;;;;;;3.57;3.33;;;15.80;99.90;;;;;;5004025;28;20896;-54
2023/08/24 04:29:55;;;;;;;4.97;3.10;;;15.80;99.90;;;;;;5027720;28;20211;-54
2023/08/24 04:32:23;;;;;;;4.43;3.20;;;15.90;99.90;;;;;;5013070;28;20274;-51
2023/08/24 04:34:51;;;;;;;4.10;3.70;;;16.00;99.90;;;;;;5018180;28;20255;-55
2023/08/24 04:37:18;;;;;;;3.30;3.00;;;16.00;99.90;;;;;;5016919;28;20271;-52
2023/08/24 04:39:45;;;;;;;5.50;3.00;;;16.10;99.90;;;;;;5020000;28;20208;-56
2023/08/24 04:42:11;;;;;;;2.77;2.53;;;15.90;99.90;;;;;;5001193;28;20225;-56
2023/08/24 04:44:38;;;;;;;5.07;3.10;;;15.90;99.90;;;;;;5025161;28;20224;-54
2023/08/24 04:47:07;;;;;;;4.73;3.33;;;15.80;99.90;;;;;;5014636;28;20241;-47
2023/08/24 04:49:34;;;;;;;6.53;3.60;;;15.80;99.90;;;;;;5018595;28;20714;-52
2023/08/24 04:52:02;;;;;;;3.53;3.23;;;15.70;99.90;;;;;;5009004;28;20202;-50
2023/08/24 04:54:29;;;;;;;3.80;3.60;;;15.70;99.90;;;;;;5025946;28;20270;-57
2023/08/24 04:56:56;;;;;;;6.67;3.00;;;15.70;99.90;;;;;;5010751;28;20357;-49
2023/08/24 04:59:22;;;;;;;4.23;3.80;;;15.70;99.90;;;;;;4994839;28;20258;-53
2023/08/24 05:01:49;;;;;;;4.23;3.10;;;15.80;99.90;;;;;;5016233;28;20826;-54
2023/08/24 05:04:16;;;;;;;3.53;3.10;;;15.90;99.90;;;;;;5019842;28;20220;-53
2023/08/24 05:06:43;;;;;;;3.07;2.83;;;15.90;99.90;;;;;;5004929;28;20204;-54
2023/08/24 05:09:11;;;;;;;4.23;3.13;;;15.90;99.90;;;;;;5020098;28;20227;-55
2023/08/24 05:11:38;;;;;;;4.77;3.50;;;15.90;99.90;;;;;;5010265;28;20200;-54
2023/08/24 05:14:05;;;;;;;5.20;4.70;;;15.90;99.90;;;;;;4999272;28;20756;-56
2023/08/24 05:16:32;;;;;;;5.50;3.80;;;15.90;99.90;;;;;;5026738;28;20204;-56
2023/08/24 05:18:59;;;;;;;4.03;3.47;;;16.00;99.90;;;;;;5029899;28;20196;-58
2023/08/24 05:21:26;;;;;;;4.83;3.27;;;15.90;99.90;;;;;;5015537;28;20280;-56
2023/08/24 05:23:52;;;;;;;5.20;3.07;;;15.90;99.90;;;;;;5010715;28;21013;-57
2023/08/24 05:26:24;;;;;;;7.27;3.93;;;15.90;99.90;;;;;;5025236;28;20547;-53
2023/08/24 05:28:51;;;;;;;5.13;3.83;;;16.00;99.90;;;;;;4998460;28;20414;-57
2023/08/24 05:31:18;;;;;;;4.97;3.43;;;16.00;99.90;;;;;;5017821;28;20199;-56
2023/08/24 05:33:44;;;;;;;4.17;3.77;;;16.00;99.90;;;;;;5026827;28;20261;-56
2023/08/24 05:36:11;;;;;;;7.13;4.20;;;16.00;99.90;;;;;;5022614;28;20246;-57
2023/08/24 05:38:38;;;;;;;6.40;4.40;;;16.10;99.90;;;;;;5006016;28;20277;-56
2023/08/24 05:41:05;;;;;;;6.50;5.33;;;16.10;99.90;;;;;;5022394;28;20242;-56
2023/08/24 05:43:33;;;;;;;5.10;4.53;;;16.10;99.90;;;;;;5014944;28;20228;-56
2023/08/24 05:46:00;;;;;;;4.67;3.93;;;16.10;99.90;;;;;;5004359;28;20637;-57
2023/08/24 05:48:27;;;;;;;5.80;4.63;;;16.10;99.90;;;;;;5024119;28;20196;-57
2023/08/24 05:50:54;;;;;;;10.03;5.77;;;16.10;99.90;;;;;;5007729;28;20196;-55
2023/08/24 05:53:20;;;;;;;6.57;5.97;;;16.20;99.90;;;;;;5013890;28;20289;-54
2023/08/24 05:55:47;;;;;;;6.40;4.67;;;16.20;99.90;;;;;;5012416;28;20203;-57
2023/08/24 05:58:14;;;;;;;7.60;5.00;;;16.20;99.90;;;;;;5024194;28;20885;-56
2023/08/24 06:00:42;;;;;;;5.17;4.73;;;16.30;99.90;;;;;;4994600;28;20275;-58
2023/08/24 06:03:09;;;;;;;7.67;5.43;;;16.30;99.90;;;;;;5022979;28;20273;-57
2023/08/24 06:05:36;;;;;;;7.83;5.20;;;16.40;99.90;;;;;;5020600;28;20203;-53
2023/08/24 06:08:03;;;;;;;5.43;4.73;;;16.40;99.90;;;;;;5018337;28;20731;-55
2023/08/24 06:10:30;;;;;;;4.73;3.87;;;16.40;99.90;;;;;;5008715;28;20292;-54
2023/08/24 06:12:57;;;;;;;7.43;4.10;;;16.50;99.90;;;;;;5018093;28;20211;-57
2023/08/24 06:15:27;;;;;;;4.97;4.10;;;16.50;99.90;;;;;;5008743;28;20550;-55
2023/08/24 06:17:55;;;;;;;4.93;4.27;;;16.60;99.90;;;;;;5013729;28;20191;-57
2023/08/24 06:20:22;;;;;;;5.17;3.67;;;16.60;99.90;;;;;;5026555;28;20192;-61
2023/08/24 06:22:50;;;;;;;4.70;3.90;;;16.60;99.90;;;;;;5019115;28;20232;-59
2023/08/24 06:25:17;;;;;;;4.60;2.60;;;16.70;99.90;;;;;;5019713;28;20203;-56
2023/08/24 06:27:43;;;;;;;2.00;1.90;;;16.70;99.90;;;;;;5018108;28;20236;-62
2023/08/24 06:30:11;;;;;;;4.20;2.90;;;16.80;99.90;;;;;;5020292;28;20610;-47
2023/08/24 06:32:38;;;;;;;5.17;3.40;;;16.90;99.90;;;;;;5002036;28;20207;-47
2023/08/24 06:35:07;;;;;;;5.10;2.50;;;16.90;99.90;;;;;;5015740;28;20228;-55
2023/08/24 06:37:33;;;;;;;2.13;1.93;;;16.90;99.90;;;;;;5020044;28;20183;-48
2023/08/24 06:40:00;;;;;;;4.87;2.70;;;17.00;99.90;;;;;;5012613;28;20204;-48
2023/08/24 06:42:27;;;;;;;3.53;2.00;;;17.00;99.90;;;;;;5011832;28;20364;-51
2023/08/24 06:44:54;;;;;;;4.07;2.10;;;17.10;99.90;;;;;;5024702;28;20203;-52
2023/08/24 06:47:21;;;;;;;6.77;3.57;;;17.20;99.90;;;;;;5001631;28;20208;-51
2023/08/24 06:49:47;;;;;;;6.97;2.53;;;17.20;99.90;;;;;;5024958;28;20274;-51
2023/08/24 06:52:16;;;;;;;3.17;2.00;;;17.30;99.90;;;;;;5010443;28;20208;-49
2023/08/24 06:54:42;;;;;;;4.60;2.40;;;17.40;99.90;;;;;;5015546;28;20243;-54
2023/08/24 06:57:09;;;;;;;5.47;2.90;;;17.60;99.90;;;;;;4989517;28;20235;-49
2023/08/24 06:59:36;;;;;;;2.60;1.70;;;17.70;99.90;;;;;;5019931;28;20188;-49
2023/08/24 07:02:04;;;;;;;1.97;1.70;;;17.70;99.90;;;;;;5016290;28;20228;-50
2023/08/24 07:04:31;;;;;;;7.30;3.33;;;17.80;99.90;;;;;;5007238;28;20230;-48
2023/08/24 07:06:58;;;;;;;2.13;2.00;;;17.80;99.90;;;;;;5025193;28;20659;-54
2023/08/24 07:09:27;;;;;;;4.30;2.00;;;17.80;99.90;;;;;;5016559;28;20216;-53
2023/08/24 07:11:54;;;;;;;4.13;1.50;;;17.90;99.90;;;;;;5008308;28;20210;-52
2023/08/24 07:14:21;;;;;;;2.57;1.63;;;17.90;99.90;;;;;;5019032;28;21557;-48
2023/08/24 07:16:48;;;;;;;4.67;1.60;;;18.00;99.90;;;;;;5013735;28;21262;-52
2023/08/24 07:19:15;;;;;;;1.47;1.10;;;18.10;99.90;;;;;;5002885;28;20211;-51
2023/08/24 07:21:41;;;;;;;2.27;1.10;;;18.10;99.90;;;;;;5021812;28;20184;-50
2023/08/24 07:24:08;;;;;;;3.40;1.27;;;18.10;99.90;;;;;;5023715;28;20589;-50
2023/08/24 07:26:36;;;;;;;1.60;1.03;;;18.20;99.90;;;;;;4996305;28;23824;-51
2023/08/24 07:29:03;;;;;;;2.07;1.27;;;18.30;99.90;;;;;;5030462;28;20600;-54
2023/08/24 07:31:30;;;;;;;1.70;1.30;;;18.30;99.90;;;;;;5018898;28;20538;-49
2023/08/24 07:33:58;;;;;;;2.20;1.13;;;18.30;99.90;;;;;;5022010;28;20219;-50
2023/08/24 07:36:25;;;;;;;2.23;1.20;;;18.40;99.90;;;;;;5009704;28;20218;-53
2023/08/24 07:38:52;;;;;;;3.53;0.90;;;18.50;99.90;;;;;;5029915;28;20200;-52
2023/08/24 07:41:19;;;;;;;4.57;1.10;;;18.50;99.90;;;;;;5017512;28;20682;-47
2023/08/24 07:43:47;;;;;;;1.07;0.90;;;18.50;99.90;;;;;;5011923;28;20204;-49
2023/08/24 07:46:14;;;;;;;1.80;0.80;;;18.60;99.90;;;;;;5028026;28;20204;-48
2023/08/24 07:48:41;;;;;;;1.23;0.97;;;18.70;99.90;;;;;;5014934;28;20208;-55
2023/08/24 07:51:08;;;;;;;4.57;0.80;;;18.80;99.90;;;;;;5004658;28;20293;-49
2023/08/24 07:53:35;;;;;;;2.50;1.07;;;18.80;99.90;;;;;;5027107;28;20215;-52
2023/08/24 07:56:02;;;;;;;1.77;0.87;;;18.80;99.90;;;;;;5015757;28;20192;-50
2023/08/24 07:58:31;;;;;;;2.23;1.03;;;18.80;99.90;;;;;;5011634;28;20330;-52
2023/08/24 08:00:59;;;;;;;1.13;1.03;;;18.90;99.90;;;;;;5017339;28;20307;-51
2023/08/24 08:03:27;;;;;;;2.60;0.93;;;18.90;99.90;;;;;;5021338;28;20282;-50
2023/08/24 08:05:54;;;;;;;3.40;0.97;;;19.00;99.90;;;;;;5024398;28;20572;-46
2023/08/24 08:08:21;;;;;;;0.70;0.43;;;19.20;99.90;;;;;;5016579;28;20906;-53
2023/08/24 08:10:48;;;;;;;1.47;0.80;;;19.20;99.90;;;;;;5024145;28;20246;-51
2023/08/24 08:13:15;;;;;;;4.00;0.80;;;19.30;99.90;;;;;;5003963;28;20236;-50
2023/08/24 08:15:41;;;;;;;1.93;0.80;;;19.40;99.90;;;;;;5033864;28;20204;-50
2023/08/24 08:18:10;;;;;;;1.90;0.90;;;19.40;99.90;;;;;;5016825;28;21559;-51
2023/08/24 08:20:36;;;;;;;2.10;0.70;;;19.40;99.90;;;;;;5024009;28;20192;-53
2023/08/24 08:23:03;;;;;;;1.13;0.57;;;19.50;99.90;;;;;;5000997;28;20298;-50
2023/08/24 08:25:31;;;;;;;2.30;1.00;;;19.60;99.90;;;;;;5024723;28;20562;-48
2023/08/24 08:27:57;;;;;;;1.33;0.73;;;19.60;99.90;;;;;;5022645;28;20552;-54
2023/08/24 08:30:24;;;;;;;3.60;0.90;;;19.70;99.90;;;;;;5012922;28;20215;-51
2023/08/24 08:32:52;;;;;;;4.17;1.07;;;19.80;99.90;;;;;;5027266;28;20215;-53
2023/08/24 08:35:20;;;;;;;1.03;0.70;;;19.80;99.90;;;;;;5017803;28;20277;-48
2023/08/24 08:37:49;;;;;;;2.73;0.70;;;19.90;99.90;;;;;;5013614;28;20203;-52
2023/08/24 08:40:16;;;;;;;2.10;0.77;;;20.00;99.90;;;;;;5023837;28;20195;-48
2023/08/24 08:42:44;;;;;;;2.17;0.57;;;20.10;99.90;;;;;;5024287;28;20200;-48
2023/08/24 08:45:12;;;;;;;1.80;0.80;;;20.20;99.90;;;;;;5004922;28;20291;-51
2023/08/24 08:47:41;;;;;;;2.40;1.17;;;20.30;99.90;;;;;;5028093;28;20204;-52
2023/08/24 08:50:09;;;;;;;3.63;0.73;;;20.30;99.90;;;;;;5011858;28;20303;-50
2023/08/24 08:52:38;;;;;;;2.90;1.00;;;20.40;99.90;;;;;;5025736;28;20583;-49
2023/08/24 08:55:06;;;;;;;1.37;0.73;;;20.50;99.90;;;;;;5002405;28;20200;-55
2023/08/24 08:57:34;;;;;;;1.30;0.90;;;20.60;99.90;;;;;;5025901;28;20248;-50
2023/08/24 09:00:01;;;;;;;0.93;0.93;;;20.60;99.90;;;;;;5008539;28;20206;-53
2023/08/24 09:02:31;;;;;;;1.17;0.70;;;20.70;99.90;;;;;;5025999;28;20295;-46
2023/08/24 09:04:58;;;;;;;2.33;0.93;;;20.70;99.90;;;;;;5013516;28;20199;-54
2023/08/24 09:07:25;;;;;;;1.40;1.00;;;20.80;99.90;;;;;;5025289;28;20920;-49
2023/08/24 09:09:54;;;;;;;3.67;1.27;;;20.90;99.90;;;;;;5010158;28;20211;-53
2023/08/24 09:12:21;;;;;;;1.53;0.90;;;20.80;99.90;;;;;;5032002;28;20298;-47
2023/08/24 09:14:47;;;;;;;1.90;0.70;;;20.70;99.90;;;;;;5019100;28;20216;-51
2023/08/24 09:17:21;;;;;;;2.93;0.60;;;20.70;99.90;;;;;;5011174;28;20270;-46
2023/08/24 09:19:51;;;;;;;1.13;0.90;;;20.80;99.90;;;;;;5014763;28;20211;-52
2023/08/24 09:22:18;;;;;;;2.38;1.10;;;20.90;99.90;;;;;;5025073;28;20196;-50
2023/08/24 09:24:45;;;;;;;1.42;1.05;;;21.00;99.90;;;;;;5024365;28;20243;-47
2023/08/24 09:27:18;;;;;;;2.65;1.15;;;21.00;99.90;;;;;;5004934;28;20274;-48
2023/08/24 09:29:49;;;;;;;3.72;1.38;;;21.10;99.90;;;;;;5016414;28;20204;-47
2023/08/24 09:32:16;;;;;;;1.25;1.15;;;21.20;99.90;;;;;;5014317;28;20232;-50
2023/08/24 09:34:43;;;;;;;3.78;1.10;;;21.30;99.90;;;;;;5016760;28;20590;-46
2023/08/24 09:37:14;;;;;;;4.72;2.10;;;21.40;99.90;;;;;;5022210;28;20966;-54
2023/08/24 09:39:41;;;;;;;4.47;1.60;;;21.60;99.90;;;;;;5027771;28;20688;-54
2023/08/24 09:42:08;;;;;;;3.10;1.63;;;21.60;99.90;;;;;;5000548;28;20223;-48
2023/08/24 09:44:37;;;;;;;3.28;1.90;;;21.70;99.90;;;;;;5014531;28;20278;-53
2023/08/24 09:47:10;;;;;;;2.35;1.63;;;21.80;99.90;;;;;;5012497;28;20196;-54
2023/08/24 09:49:37;;;;;;;4.50;2.22;;;21.90;99.90;;;;;;5004724;28;20208;-54
2023/08/24 09:52:07;;;;;;;4.50;2.38;;;21.90;99.90;;;;;;5011690;28;20196;-52
2023/08/24 09:54:38;;;;;;;2.88;2.30;;;21.90;99.90;;;;;;5023840;28;20216;-56
2023/08/24 09:57:07;;;;;;;5.75;2.30;;;22.00;99.90;;;;;;5001318;28;20227;-50
2023/08/24 09:59:38;;;;;;;3.63;2.15;;;22.10;99.90;;;;;;5021587;28;20543;-53
2023/08/24 10:02:15;;;;;;;5.72;2.50;;;22.20;99.90;;;;;;5012353;28;20208;-49
2023/08/24 10:04:43;;;;;;;4.85;2.70;;;22.40;99.90;;;;;;5012807;28;20219;-55
2023/08/24 10:07:14;;;;;;;3.88;2.35;;;22.30;99.90;;;;;;5008167;28;20198;-46
2023/08/24 10:09:48;;;;;;;3.85;2.70;;;22.10;99.90;;;;;;5017008;28;20231;-50
2023/08/24 10:12:19;;;;;;;5.55;3.80;;;22.10;99.90;;;;;;5005260;28;20206;-48
2023/08/24 10:14:55;;;;;;;5.90;2.78;;;22.10;99.90;;;;;;5029289;28;20226;-49
2023/08/24 10:17:24;;;;;;;4.05;3.05;;;22.00;99.90;;;;;;5013142;28;20223;-50
2023/08/24 10:19:53;;;;;;;4.93;2.85;;;22.10;99.90;;;;;;5013828;28;20203;-46
2023/08/24 10:22:21;;;;;;;3.47;3.08;;;22.10;99.90;;;;;;5004684;28;20210;-55
2023/08/24 10:24:48;;;;;;;5.18;4.25;;;22.40;99.90;;;;;;5028232;28;20212;-48
2023/08/24 10:27:17;;;;;;;11.88;3.78;;;22.50;99.90;;;;;;5004327;28;20211;-49
2023/08/24 10:29:44;;;;;;;4.65;2.70;;;22.50;99.90;;;;;;5028294;28;20195;-51
2023/08/24 10:32:14;;;;;;;3.60;2.80;;;22.50;99.90;;;;;;5021014;28;20301;-48
2023/08/24 10:34:41;;;;;;;4.43;2.85;;;22.50;99.90;;;;;;5008976;28;20297;-50
2023/08/24 10:37:10;;;;;;;6.03;2.85;;;22.60;99.90;;;;;;5011908;28;20204;-47
2023/08/24 10:39:38;;;;;;;3.13;2.40;;;22.60;99.90;;;;;;5016172;28;20207;-50
2023/08/24 10:42:06;;;;;;;5.35;2.58;;;22.60;99.90;;;;;;5022372;28;20196;-50
2023/08/24 10:44:37;;;;;;;8.00;2.88;;;22.70;99.90;;;;;;5003187;28;20220;-50
2023/08/24 10:47:08;;;;;;;4.60;2.70;;;22.80;99.90;;;;;;5010250;28;20257;-53
2023/08/24 10:49:38;;;;;;;4.70;2.15;;;23.00;99.90;;;;;;5006828;28;20725;-54
2023/08/24 10:52:19;;;;;;;3.90;3.03;;;23.10;99.90;;;;;;5017728;28;20314;-54
2023/08/24 10:54:48;;;;;;;7.10;2.80;;;23.20;99.90;;;;;;5014682;28;20701;-51
2023/08/24 10:57:23;;;;;;;4.20;2.30;;;23.20;99.90;;;;;;5022473;28;20199;-51
2023/08/24 11:00:06;;;;;;;4.90;3.78;;;23.20;99.90;;;;;;5001000;28;20674;-48
2023/08/24 11:02:43;;;;;;;6.13;2.70;;;23.10;99.90;;;;;;5011520;28;20211;-52
2023/08/24 11:05:21;;;;;;;4.28;2.70;;;23.10;99.90;;;;;;5013102;28;20938;-54
2023/08/24 11:07:57;;;;;;;3.55;2.75;;;23.00;99.90;;;;;;5009139;28;20214;-50
2023/08/24 11:10:26;;;;;;;3.47;2.53;;;23.00;99.90;;;;;;5014046;28;20263;-53
2023/08/24 11:13:15;;;;;;;5.45;3.13;;;23.00;99.90;;;;;;5018840;28;20709;-47
2023/08/24 11:15:44;;;;;;;2.75;2.15;;;23.00;99.90;;;;;;5001470;28;20208;-48
2023/08/24 11:18:15;;;;;;;6.93;2.40;;;23.10;99.90;;;;;;5014933;28;20208;-55
2023/08/24 11:20:45;;;;;;;5.72;2.65;;;23.20;99.90;;;;;;5010093;28;20273;-49
2023/08/24 11:23:13;;;;;;;5.30;2.35;;;23.20;99.90;;;;;;5014118;28;20216;-54
2023/08/24 11:25:40;;;;;;;3.28;2.22;;;23.30;99.90;;;;;;5006018;28;20207;-49
2023/08/24 11:28:07;;;;;;;2.90;2.28;;;23.30;99.90;;;;;;5020216;28;20192;-55
2023/08/24 11:30:35;;;;;;;3.17;2.40;;;23.40;99.90;;;;;;5003233;28;20669;-53
2023/08/24 11:33:03;;;;;;;4.80;1.88;;;23.50;99.90;;;;;;5020812;28;20978;-53
2023/08/24 11:35:30;;;;;;;4.75;2.10;;;23.60;99.90;;;;;;5008154;28;20200;-55
2023/08/24 11:37:58;;;;;;;2.42;1.85;;;23.60;99.90;;;;;;5032482;28;20836;-49
2023/08/24 11:40:26;;;;;;;5.45;2.20;;;23.80;99.90;;;;;;5010208;28;20204;-51
2023/08/24 11:42:55;;;;;;;8.13;2.08;;;23.80;99.90;;;;;;5026344;28;20223;-48
2023/08/24 11:45:22;;;;;;;4.97;1.85;;;23.90;99.90;;;;;;5009291;28;20208;-54
2023/08/24 11:47:50;;;;;;;3.58;1.95;;;24.00;99.90;;;;;;5032505;28;20282;-56
2023/08/24 11:50:18;;;;;;;4.93;2.20;;;24.10;99.90;;;;;;5017995;28;20830;-49
2023/08/24 11:52:45;;;;;;;2.05;1.80;;;24.20;99.90;;;;;;5032224;28;20219;-52
2023/08/24 11:55:14;;;;;;;3.28;2.28;;;24.20;99.90;;;;;;5020029;28;20206;-51
2023/08/24 11:57:42;;;;;;;3.53;1.88;;;24.30;99.90;;;;;;5017577;28;20254;-53
2023/08/24 12:00:13;;;;;;;2.88;1.95;;;24.40;99.90;;;;;;5010214;28;20983;-51
2023/08/24 12:02:41;;;;;;;3.97;2.17;;;24.50;99.90;;;;;;5029903;28;20188;-53
2023/08/24 12:05:08;;;;;;;2.83;2.05;;;24.60;99.90;;;;;;5027382;28;20184;-51
2023/08/24 12:07:35;;;;;;;4.63;1.98;;;24.60;99.90;;;;;;5017530;28;20631;-49
2023/08/24 12:10:02;;;;;;;2.30;2.10;;;24.50;99.90;;;;;;5020293;28;20247;-53
2023/08/24 12:12:30;;;;;;;2.47;1.95;;;24.60;99.90;;;;;;4998548;28;20305;-47
2023/08/24 12:14:58;;;;;;;3.17;2.13;;;24.60;99.90;;;;;;5025824;28;20200;-52
2023/08/24 12:17:25;;;;;;;4.45;1.95;;;24.70;99.90;;;;;;5000369;28;20373;-51
2023/08/24 12:20:01;;;;;;;4.15;1.95;;;24.80;99.90;;;;;;5025830;28;20202;-50
2023/08/24 12:22:28;;;;;;;7.55;2.72;;;24.90;99.90;;;;;;5003491;28;20196;-52
2023/08/24 12:24:54;;;;;;;3.25;2.25;;;25.00;99.90;;;;;;5026767;28;20222;-51
2023/08/24 12:27:23;;;;;;;3.85;2.22;;;25.10;99.90;;;;;;5003738;28;20742;-56
2023/08/24 12:29:51;;;;;;;3.53;2.20;;;25.10;99.90;;;;;;5025278;28;20200;-51
2023/08/24 12:32:20;;;;;;;2.05;1.85;;;25.10;99.90;;;;;;4989437;28;20258;-52
2023/08/24 12:34:47;;;;;;;2.95;1.83;;;25.10;99.90;;;;;;5026857;28;20306;-49
2023/08/24 12:37:14;;;;;;;4.45;1.80;;;25.10;99.90;;;;;;5017775;28;20196;-54
2023/08/24 12:39:41;;;;;;;2.80;1.85;;;25.10;99.90;;;;;;5022682;28;20284;-51
2023/08/24 12:42:08;;;;;;;2.17;2.08;;;25.30;99.90;;;;;;5007582;28;20204;-55
2023/08/24 12:44:36;;;;;;;4.82;2.05;;;25.30;99.90;;;;;;5017671;28;20228;-47
2023/08/24 12:47:04;;;;;;;3.13;1.95;;;25.40;99.90;;;;;;4994434;28;20330;-55
2023/08/24 12:49:31;;;;;;;4.38;2.20;;;25.40;99.90;;;;;;5019686;28;20286;-57